This is the latest recevied weather packets stored in our database for station/object KO6MEX-13. If no packets are shown the sender has not sent any weather packets the latest 10 day(s).
| Time | Temp. | Humidity | Pressure | Rain* | Wind** | Luminosity | Snow |
|---|---|---|---|---|---|---|---|
| 1777857038 | 16.67° C | 63% | 1017.5 hPa | 0 mm | - | 260 W/m² | - |
| 1777856733 | 16.11° C | 64% | 1017.5 hPa | 0 mm | - | 174 W/m² | - |
| 1777856430 | 16.67° C | 63% | 1017.4 hPa | 0 mm | - | 137 W/m² | - |
| 1777856126 | 16.67° C | 63% | 1017.3 hPa | 0 mm | - | 136 W/m² | - |
| 1777855824 | 16.67° C | 63% | 1017.3 hPa | 0 mm | - | 152 W/m² | - |
| 1777855522 | 16.67° C | 63% | 1017.3 hPa | 0 mm | - | 191 W/m² | - |
| 1777855219 | 16.67° C | 63% | 1017.3 hPa | 0 mm | - | 156 W/m² | - |
| 1777854915 | 16.67° C | 65% | 1017.2 hPa | 0 mm | - | 176 W/m² | - |
| 1777854612 | 16.67° C | 65% | 1017.1 hPa | 0 mm | - | 204 W/m² | - |
| 1777854308 | 16.67° C | 64% | 1017.2 hPa | 0 mm | - | 261 W/m² | - |
| 1777854006 | 16.67° C | 63% | 1017.4 hPa | 0 mm | - | 264 W/m² | - |
| 1777853703 | 17.22° C | 60% | 1017.1 hPa | 0 mm | - | 274 W/m² | - |
| 1777853399 | 17.22° C | 60% | 1017 hPa | 0 mm | - | 469 W/m² | - |
| 1777853097 | 17.78° C | 59% | 1017 hPa | 0 mm | - | 327 W/m² | - |
| 1777852794 | 17.78° C | 58% | 1017 hPa | 0 mm | - | 557 W/m² | - |
| 1777852492 | 17.22° C | 59% | 1016.9 hPa | 0 mm | - | 446 W/m² | - |
| 1777852188 | 17.78° C | 57% | 1017.1 hPa | 0 mm | - | 572 W/m² | - |
| 1777851886 | 17.78° C | 59% | 1017.3 hPa | 0 mm | - | 641 W/m² | - |
| 1777851584 | 17.78° C | 56% | 1016.8 hPa | 0 mm | - | 302 W/m² | - |
| 1777851280 | 18.33° C | 56% | 1016.8 hPa | 0 mm | - | 319 W/m² | - |
| 1777850977 | 17.78° C | 57% | 1017 hPa | 0 mm | - | 377 W/m² | - |
| 1777850674 | 18.33° C | 55% | 1016.9 hPa | 0 mm | - | 521 W/m² | - |
| 1777850372 | 18.33° C | 54% | 1017 hPa | 0 mm | - | 568 W/m² | - |
| 1777850069 | 18.33° C | 54% | 1016.9 hPa | 0 mm | - | 574 W/m² | - |
| 1777849765 | 17.78° C | 55% | 1016.8 hPa | 0 mm | - | 543 W/m² | - |
* Rain latest hour (hover to see other rain measurements)
** Current wind speed in m/s (hover to see current wind gust speed)